createdAt,value
2018-05-12T00:04:20.724Z,18.8
2018-05-12T00:14:19.858Z,18.8
2018-05-12T00:24:18.976Z,18.8
2018-05-12T00:34:18.318Z,18.8
2018-05-12T00:44:17.801Z,18.6
2018-05-12T00:54:16.818Z,18.6
2018-05-12T01:04:16.134Z,18.6
2018-05-12T01:14:15.057Z,18.6
2018-05-12T01:24:14.248Z,18.6
2018-05-12T01:34:13.255Z,18.6
2018-05-12T01:44:12.738Z,18.5
2018-05-12T01:54:12.594Z,18.4
2018-05-12T02:04:11.114Z,18.4
2018-05-12T02:14:10.463Z,18.3
2018-05-12T02:24:09.411Z,18.3
2018-05-12T02:34:08.543Z,18.3
2018-05-12T02:44:08.328Z,18.3
2018-05-12T02:54:07.233Z,18.3
2018-05-12T03:04:06.620Z,18.3
2018-05-12T03:14:06.002Z,18.3
2018-05-12T03:24:05.432Z,18.3
2018-05-12T03:34:04.138Z,18.3
2018-05-12T03:44:03.260Z,18.3
2018-05-12T03:54:02.806Z,18.3
2018-05-12T04:04:01.643Z,18.3
2018-05-12T04:14:00.692Z,18.3
2018-05-12T04:23:59.943Z,18.5
2018-05-12T04:33:59.619Z,18.6
2018-05-12T04:43:58.387Z,18.9
2018-05-12T04:53:57.644Z,19.2
2018-05-12T05:03:57.243Z,19.4
2018-05-12T05:13:56.443Z,19.7
2018-05-12T05:23:55.505Z,19.9
2018-05-12T05:33:54.441Z,20.1
2018-05-12T05:43:53.642Z,20.3
2018-05-12T05:53:53.484Z,20.3
2018-05-12T06:03:52.200Z,20.4
2018-05-12T06:13:51.604Z,20.5
2018-05-12T06:23:50.842Z,20.7
2018-05-12T06:33:49.976Z,20.9
2018-05-12T06:43:49.888Z,21
2018-05-12T06:53:49.355Z,21.2
2018-05-12T07:03:47.724Z,21.4
2018-05-12T07:13:46.855Z,21.7
2018-05-12T07:23:46.094Z,22.1
2018-05-12T07:33:44.965Z,22.3
2018-05-12T07:43:44.582Z,22.8
2018-05-12T07:53:43.868Z,22.8
2018-05-12T08:03:43.024Z,23.1
2018-05-12T08:13:41.937Z,23.3
2018-05-12T08:23:41.288Z,23.3
2018-05-12T08:33:40.453Z,23.4
2018-05-12T08:43:40.376Z,23.5
2018-05-12T08:53:38.782Z,23.6
